Terminal Aerodrome Forecast
Issued by NWS

Home | Current Version | Previous Version | Text Only | Print | Product List | Glossary On
Versions: 1 2 3 4 5 6 7 8 9 10 11 12 13 14 15 16
503
FTUS44 KBMX 291138
TAFEET
TAF
KEET 291138Z 2912/3012 00000KT 6SM BR SKC
     FM291400 00000KT P6SM FEW250
     FM291800 15007KT P6SM FEW250
     FM292300 27008KT P6SM VCTS BKN050CB
     FM300300 16004KT 6SM BR BKN025=

USA.gov is the U.S. government's official web portal to all federal, state and local government web resources and services.